Historyczne dane pomiarowe

Dodano dane terminowe – wersja testowa.

Dane z okresu 1951-2019

Wersja bazy: 1.34 [2019-03-16, lista zmian], aktualizacja planowana na 2019-04-15

Dane meteo z obszaru Polski uzyskane na podstawie danych udostępnionych przez Instytut Meteorologii i Gospodarki Wodnej – Państwowy Instytut Badawczy.

 

Wybierz Datę:    

       

TemperaturaWilgotnośćWiatrCiśnienieOpadyŚniegCzas trwania zjawisk
 Stacja t tx tn tng RH VA  wxwx mslp ppp RRR   cm mm wxwxwxwxwxwxwx
1987-08-14 18.3 22.2 8.8--- 1.7 1.7---- 0.0------------
1987-08-13 14.2 18.5 9.8--- 3.3 3.7---- 0.0------------
1987-08-12 14.5 19.0 9.9--- 3.7 4.7---- 0.0------------
1987-08-11 15.2 18.0 13.9--- 3.0 4.0---- 0.0------------
1987-08-10 16.5 21.0 14.9--- 5.7 3.7---- 4.2------------
1987-08-09 17.1 23.0 10.8--- 2.7 2.7---- 1.0------------
1987-08-08 15.1 20.0 11.8--- 2.3 3.7---- 0.0------------
1987-08-07 13.5 18.1 9.0--- 2.3 3.0---- 0.0------------
1987-08-06 11.7 15.0 10.4--- 5.0 3.0---- 1.4------------
1987-08-05 12.9 18.2 8.8--- 5.0 2.3---- 1.5------------
1987-08-04 15.2 19.4 11.4--- 4.3 2.3---- 0.1------------
1987-08-03 14.9 17.5 11.8--- 1.7 3.7---- 0.0------------
1987-08-02 15.8 19.5 13.7--- 2.0 2.3---- 2.4------------
1987-08-01 16.5 21.0 10.2--- 2.3 1.3---- 7.6------------
1987-07-31 17.5 23.1 9.8--- 4.3 1.7---- 10.9------------
1987-07-30 20.7 23.2 18.0--- 2.7 1.0---- 0.0------------
1987-07-29 18.3 22.2 14.9--- 3.7 3.0---- 3.0------------
1987-07-28 16.2 21.0 13.4--- 6.0 3.0---- 4.7------------
1987-07-27 14.7 17.0 11.8--- 4.0 3.7---- 0.2------------
1987-07-26 15.1 19.7 11.8--- 6.3 2.0---- 12.5------------
1987-07-25 20.1 24.0 18.1--- 1.3 1.7---- 1.6------------
1987-07-24 21.2 26.2 17.5--- 2.0 0.7---- 0.0------------
1987-07-23 22.9 28.6 16.0--- 0.3 0.7---- 23.5------------
1987-07-22 21.8 27.5 16.4--- 0.3 2.0---- 0.0------------
1987-07-21 21.1 27.4 16.0--- 0.7 0.3---- 0.0------------
1987-07-20 21.4 26.5 18.5--- 0.3 0.3---- 0.0------------
1987-07-19 20.0 24.5 16.0--- 0.3 0.3---- 0.0------------
1987-07-18 20.5 25.4 17.0--- 0.7 0.3---- 0.0------------
1987-07-17 18.7 23.5 14.9--- 0.3 0.3---- 0.0------------
1987-07-16 18.8 25.0 10.8--- 0.0 1.0---- 0.2------------
1987-07-15 16.6 21.5 9.2--- 0.0 1.0---- 0.0------------
1987-07-14 17.0 21.0 13.4--- 2.0 3.0---- 0.0------------
1987-07-13 18.2 25.5 12.3--- 2.0 2.7---- 0.0------------
1987-07-12 20.6 27.0 13.9--- 1.3 1.0---- 2.1------------
1987-07-11 16.2 22.0 8.8--- 0.3 1.0---- 0.0------------
1987-07-10 15.9 19.0 12.8--- 1.3 3.3---- 0.0------------
1987-07-09 19.6 25.0 15.0--- 5.0 2.0---- 4.5------------
1987-07-08 22.3 28.5 15.5--- 0.0 0.7---- 0.0------------
1987-07-07 20.0 26.0 10.8--- 0.0 0.3---- 0.0------------
1987-07-06 17.5 21.3 11.3--- 0.7 2.3---- 0.0------------
1987-07-05 17.7 22.0 15.4--- 0.3 1.0---- 0.1------------
1987-07-04 19.6 24.0 13.9--- 0.3 1.0---- 0.0------------
1987-07-03 21.8 24.1 19.6--- 0.0 0.7---- 0.0------------
1987-07-02 23.8 30.0 21.6--- 0.0 1.0---- 0.0------------
1987-07-01 26.9 33.0 21.1--- 0.0 0.0---- 0.0------------
1987-06-30 23.9 28.5 18.9--- 0.3 1.3---- 0.0------------
1987-06-29 18.3 25.2 9.8--- 0.3 1.3---- 0.0------------
1987-06-28 16.4 21.0 10.9--- 2.7 1.3---- 0.0------------
1987-06-27 17.1 21.0 13.4--- 1.3 1.3---- 0.0------------
1987-06-26 14.2 21.0 6.9--- 0.3 0.7---- 0.0------------
1987-06-25 13.7 18.5 11.8--- 1.7 3.0---- 0.0------------
1987-06-24 15.9 19.5 12.8--- 1.0 1.3---- 6.4------------
1987-06-23 17.4 22.0 14.1--- 1.7 1.3---- 0.0------------
1987-06-22 18.8 26.0 10.5--- 1.3 0.3---- 0.0------------
1987-06-21 16.3 21.2 8.8--- 1.7 1.3---- 0.0------------
1987-06-20 15.0 20.0 6.9--- 2.3 2.7---- 0.0------------
1987-06-19 12.3 17.0 7.3--- 3.3 1.3---- 0.0------------
1987-06-18 12.5 18.0 7.8--- 3.0 2.7---- 0.0------------
1987-06-17 10.8 15.0 9.0--- 3.3 3.0---- 0.0------------
1987-06-16 17.4 26.0 11.7--- 2.3 3.7---- 2.0------------
508.1 ms

 

Źródłem pochodzenia danych jest Instytut Meteorologii i Gospodarki Wodnej – Państwowy Instytut Badawczy. Dane Instytutu Meteorologii i Gospodarki Wodnej – Państwowego Instytutu Badawczego zostały przetworzone.

Dane źródłowe można odnaleźć na stronie https://dane.imgw.pl